WetterOnline ( https://www.wetteronline.de )

Wetter aktuell Eisfeld

Aktuelles Wetter: Coburg (323m)

6-stündlich | Neueste Meldungen
Ortszeit Temperatur Wetter
Do, 26.05. 8:00 14.2° C bedeckt
Do, 26.05. 2:00 11.7° C bedeckt
Mi, 25.05. 20:00 17.8° C leicht bewölkt
Mi, 25.05. 14:00 18.0° C wolkig
Mi, 25.05. 8:00 10.5° C bedeckt
Mi, 25.05. 2:00 10.2° C bedeckt
Di, 24.05. 20:00 17.2° C fast wolkenlos
Di, 24.05. 14:00 17.1° C bewölkt
Ortszeit Temperatur Wetter
Do, 26.05. 13:00 16.6° C bedeckt
Do, 26.05. 12:40 16.6° C bedeckt
Do, 26.05. 12:30 16.7° C bewölkt
Do, 26.05. 12:20 16.7° C bewölkt
Do, 26.05. 12:10 16.2° C bewölkt
Do, 26.05. 12:00 16.4° C bedeckt
Do, 26.05. 11:50 16.4° C bedeckt
Do, 26.05. 11:30 15.7° C bedeckt
Do, 26.05. 11:00 15.4° C bedeckt
Do, 26.05. 10:30 15.7° C bedeckt
Do, 26.05. 10:00 15.0° C bedeckt
Ortszeit Relative Feuchte Sichtweite
Do, 26.05. 8:00 67% >70 km
Do, 26.05. 2:00 68% >70 km
Mi, 25.05. 20:00 43% >70 km
Mi, 25.05. 14:00 48% >70 km
Mi, 25.05. 8:00 87% 60 km
Mi, 25.05. 2:00 83% >70 km
Di, 24.05. 20:00 54% 55 km
Di, 24.05. 14:00 65% >70 km
Ortszeit Relative Feuchte Sichtweite
Do, 26.05. 13:00 57% >70 km
Do, 26.05. 12:40 56% -
Do, 26.05. 12:30 58% 55 km
Do, 26.05. 12:20 58% -
Do, 26.05. 12:10 64% -
Do, 26.05. 12:00 62% >70 km
Do, 26.05. 11:50 62% -
Do, 26.05. 11:30 64% >70 km
Do, 26.05. 11:00 64% 60 km
Do, 26.05. 10:30 67% 45 km
Do, 26.05. 10:00 66% >70 km
Ortszeit Niederschlagsmenge Niederschlagsart
Do, 26.05. 8:00 0.0 l/m2 in 12 Std. -
Do, 26.05. 2:00 0.0 l/m2 in 6 Std. -
Mi, 25.05. 20:00 0.0 l/m2 in 12 Std. -
Mi, 25.05. 14:00 0.0 l/m2 in 6 Std. -
Mi, 25.05. 8:00 0.0 l/m2 in 12 Std. -
Mi, 25.05. 2:00 0.0 l/m2 in 6 Std. -
Di, 24.05. 20:00 2 l/m2 in 12 Std. -
Di, 24.05. 14:00 2 l/m2 in 6 Std. Regen
Ortszeit Niederschlagsmenge Niederschlagsart
Do, 26.05. 13:00 0.0 l/m2 in 1 Std. -
Do, 26.05. 12:40 keine Meldung -
Do, 26.05. 12:30 0.0 l/m2 in 1 Std. -
Do, 26.05. 12:20 keine Meldung -
Do, 26.05. 12:10 keine Meldung -
Do, 26.05. 12:00 0.0 l/m2 in 1 Std. -
Do, 26.05. 11:50 keine Meldung -
Do, 26.05. 11:30 0.0 l/m2 in 1 Std. -
Do, 26.05. 11:00 0.0 l/m2 in 1 Std. -
Do, 26.05. 10:30 0.0 l/m2 in 1 Std. -
Do, 26.05. 10:00 0.0 l/m2 in 1 Std. -
Ortszeit Stärke Spitze Richtung
km/h Bft. km/h Grad Sektor
Do, 26.05. 8:00 15 3 28 260° W
Do, 26.05. 2:00 0 0 25 - -
Mi, 25.05. 20:00 18 3 40 270° W
Mi, 25.05. 14:00 20 4 30 240° SW
Mi, 25.05. 8:00 0 0 14 - -
Mi, 25.05. 2:00 11 2 18 10° N
Di, 24.05. 20:00 11 2 40 250° W
Di, 24.05. 14:00 18 3 47 280° W
Ortszeit Stärke Spitze Richtung
km/h Bft. km/h Grad Sektor
Do, 26.05. 13:00 24 4 39 260° W
Do, 26.05. 12:40 25 4 - 250° W
Do, 26.05. 12:30 25 4 40 260° W
Do, 26.05. 12:20 25 4 - 260° W
Do, 26.05. 12:10 28 4 - 260° W
Do, 26.05. 12:00 22 4 36 250° W
Do, 26.05. 11:50 22 4 - 250° W
Do, 26.05. 11:30 18 3 36 270° W
Do, 26.05. 11:00 22 4 33 270° W
Do, 26.05. 10:30 18 3 32 270° W
Do, 26.05. 10:00 19 3 31 280° W
Ortszeit Untergrenze Bedeckung Gattung
total tief tief mittel hoch
Do, 26.05. 8:00 1800 m 8/8 8/8 - - -
Do, 26.05. 2:00 2400 m 8/8 8/8 - - -
Mi, 25.05. 20:00 1800 m 4/8 2/8 - - -
Mi, 25.05. 14:00 1500 m 5/8 5/8 - - -
Mi, 25.05. 8:00 4800 m 8/8 8/8 - - -
Mi, 25.05. 2:00 2400 m 8/8 8/8 - - -
Di, 24.05. 20:00 1500 m 1/8 1/8 - - -
Di, 24.05. 14:00 1080 m 8/8 7/8 - - -
Ortszeit Bedeckungsgrad in Achtel und Wolkenuntergrenze
Do, 26.05. 13:00 3(1230m) 4(1470m) 8(1800m)
Do, 26.05. 12:40 8
Do, 26.05. 12:30 2(1140m) 3(1410m) 7(1800m)
Do, 26.05. 12:20 2(1140m) 3(1410m) 7(1800m)
Do, 26.05. 12:10 7
Do, 26.05. 12:00 8(1500m)
Do, 26.05. 11:50 8(1500m)
Do, 26.05. 11:30 1(1020m) 8(1500m)
Do, 26.05. 11:00 6(1050m) 6(1410m) 8(1500m)
Do, 26.05. 10:30 3(960m) 4(1320m) 8(1800m)
Do, 26.05. 10:00 2(930m) 6(1260m) 8(1800m)
Ortszeit Luftdruck NN (hPa) Tendenz (hPa in 3 Std.)
Do, 26.05. 8:00 1020 + 1,1
Do, 26.05. 2:00 1020 + 0,8
Mi, 25.05. 20:00 1017 + 0,9
Mi, 25.05. 14:00 1016 - 0,1
Mi, 25.05. 8:00 1016 + 1,4
Mi, 25.05. 2:00 1014 + 0,7
Di, 24.05. 20:00 1010 + 0,9
Di, 24.05. 14:00 1008 + 1,9
Ortszeit Luftdruck NN (hPa) Tendenz (hPa in 3 Std.)
Do, 26.05. 13:00 1022 + 0,8
Do, 26.05. 12:40 1022 keine Meldung
Do, 26.05. 12:30 1022 + 1,1
Do, 26.05. 12:20 1022 keine Meldung
Do, 26.05. 12:10 1022 keine Meldung
Do, 26.05. 12:00 1022 + 1,0
Do, 26.05. 11:50 1022 keine Meldung
Do, 26.05. 11:30 1022 + 1,4
Do, 26.05. 11:00 1022 + 1,6
Do, 26.05. 10:30 1022 + 1,7
Do, 26.05. 10:00 1021 + 1,6
Ortszeit Schneehöhe (cm)
Do, 26.05. 8:00 0
Do, 26.05. 2:00 0
Mi, 25.05. 20:00 0
Mi, 25.05. 14:00 0
Mi, 25.05. 8:00 0
Mi, 25.05. 2:00 0
Di, 24.05. 20:00 0
Di, 24.05. 14:00 0
Ortszeit Schneehöhe (cm)
Do, 26.05. 13:00 0
Do, 26.05. 12:40 0
Do, 26.05. 12:30 0
Do, 26.05. 12:20 0
Do, 26.05. 12:10 0
Do, 26.05. 12:00 0
Do, 26.05. 11:50 0
Do, 26.05. 11:30 0
Do, 26.05. 11:00 0
Do, 26.05. 10:30 0
Do, 26.05. 10:00 0
Link zu dieser Seite / Seite empfehlen

Das Wetter in ...